Flight Track Log - Related Links

Times and Time Zones

All times are in EDT time to prevent confusion due to time zone crossing. See the DAL268 flight status page for this flight to view local times or setup timezone preferences in your user account.

Time Position Orientation Groundspeed Altitude Reporting Facility
EDT Latitude Longitude Course Direction KTS MPH feet Rate Location/Type
Sun 06:10:20 PM 33.6167 -84.5000 64° Northeast 211 243 3,100  Level Atlanta TRACON
Sun 06:11:14 PM 33.5833 -84.5667 239° Southwest 259 298 5,400 2,895 Climbing Atlanta TRACON
Sun 06:12:00 PM 33.8632 -84.1313 101° East  Level Estimated
Sun 06:12:14 PM 33.5167 -84.5833 192° South 255 293 8,600  Level Atlanta TRACON
Sun 06:13:00 PM 33.8063 -84.0157 121° Southeast  Level FlightAware Approximate
Sun 06:13:57 PM 33.4553 -84.4944 130° Southeast 224 258 10,900  Level Atlanta Center
Sun 06:14:00 PM 33.7493 -83.9002 121° Southeast  Level FlightAware Approximate
Sun 06:14:57 PM 33.4556 -84.3750 90° East 287 330 12,800  Level Atlanta Center
Sun 06:15:00 PM 33.8261 -83.8028 64° Northeast  Level Estimated
Sun 06:15:57 PM 33.4642 -84.2581 85° East 335 386 15,400  Level Atlanta Center
Sun 06:16:57 PM 33.5125 -84.1408 64° Northeast 373 429 16,800 1,500 Climbing Atlanta Center
Sun 06:17:57 PM 33.5647 -84.0164 63° Northeast 393 452 18,400 1,150 Climbing Atlanta Center
Sun 06:18:57 PM 33.6106 -83.8817 68° East 415 478 19,100 750 Climbing Atlanta Center
Sun 06:19:57 PM 33.6414 -83.7319 76° East 440 506 19,900 1,200 Climbing Atlanta Center
Sun 06:20:57 PM 33.6828 -83.5794 72° East 468 539 21,500 1,550 Climbing Atlanta Center
Sun 06:21:57 PM 33.7447 -83.4292 64° Northeast 489 563 23,000 1,350 Climbing Atlanta Center
Sun 06:22:57 PM 33.8044 -83.2764 65° Northeast 494 568 24,200 1,350 Climbing Atlanta Center
Sun 06:23:57 PM 33.8700 -83.1206 63° Northeast 506 582 25,700 1,500 Climbing Atlanta Center
Sun 06:24:57 PM 33.9233 -82.9822 65° Northeast 512 589 27,200 1,700 Climbing Atlanta Center
Sun 06:25:57 PM 33.9867 -82.8261 64° Northeast 512 589 29,100 1,650 Climbing Atlanta Center
Sun 06:26:57 PM 34.0456 -82.6775 64° Northeast 502 578 30,500 1,300 Climbing Atlanta Center
Sun 06:27:57 PM 34.1064 -82.5258 64° Northeast 502 578 31,700 750 Climbing Atlanta Center
Sun 06:28:57 PM 34.1628 -82.3769 65° Northeast 495 570 32,000 150 Climbing Atlanta Center
Sun 06:29:57 PM 34.2233 -82.2250 64° Northeast 490 564 32,000  Level Atlanta Center
Sun 06:30:57 PM 34.2858 -82.0803 62° Northeast 484 557 32,000  Level Atlanta Center
Sun 06:31:57 PM 34.3586 -81.9378 58° Northeast 484 557 32,000 250 Level Atlanta Center
Sun 06:32:57 PM 34.4292 -81.8000 58° Northeast 484 557 32,500 450 Climbing Atlanta Center
Sun 06:33:57 PM 34.4994 -81.6544 60° Northeast 489 563 32,900 250 Climbing Atlanta Center
Sun 06:34:57 PM 34.5717 -81.5086 59° Northeast 495 570 33,000 50 Climbing Atlanta Center
Sun 06:35:57 PM 34.6517 -81.3494 59° Northeast 501 577 33,000  Level Atlanta Center
Sun 06:36:57 PM 34.7256 -81.1981 59° Northeast 508 585 33,000  Level Atlanta Center
Sun 06:37:57 PM 34.7953 -81.0542 59° Northeast 508 585 33,000  Level Atlanta Center
Sun 06:38:57 PM 34.8689 -80.9072 59° Northeast 503 579 33,000  Level Atlanta Center
Sun 06:39:57 PM 34.9400 -80.7575 60° Northeast 508 585 33,000  Level Atlanta Center
Sun 06:42:15 PM 35.0917 -80.4403 60° Northeast 481 554 33,000  Level Washington Center
Sun 06:43:15 PM 35.1600 -80.2969 60° Northeast 481 554 33,000  Level Washington Center
Sun 06:44:15 PM 35.2303 -80.1536 59° Northeast 487 560 33,000  Level Washington Center
Sun 06:45:13 PM 35.2981 -80.0125 59° Northeast 487 560 33,000  Level Washington Center
Sun 06:46:14 PM 35.3661 -79.8686 60° Northeast 487 560 33,000  Level Washington Center
Sun 06:47:14 PM 35.4356 -79.7269 59° Northeast 479 551 33,000  Level Washington Center
Sun 06:48:15 PM 35.5031 -79.5850 60° Northeast 479 551 33,000  Level Washington Center
Sun 06:49:13 PM 35.5703 -79.4428 60° Northeast 474 545 33,000  Level Washington Center
Sun 06:50:14 PM 35.6356 -79.2978 61° Northeast 474 545 33,000  Level Washington Center
Sun 06:51:15 PM 35.7044 -79.1578 59° Northeast 469 540 33,000  Level Washington Center
Sun 06:52:16 PM 35.7692 -79.0147 61° Northeast 469 540 33,000  Level Washington Center
Sun 06:53:14 PM 35.8297 -78.8661 63° Northeast 469 540 33,000  Level Washington Center
Sun 06:54:14 PM 35.8944 -78.7072 63° Northeast 469 540 33,000  Level Washington Center
Sun 06:55:13 PM 35.9544 -78.5608 63° Northeast 469 540 33,000  Level Washington Center
Sun 06:56:13 PM 36.0144 -78.4117 64° Northeast 469 540 33,000  Level Washington Center
Sun 06:57:14 PM 36.0742 -78.2647 63° Northeast 469 540 33,000  Level Washington Center
Sun 06:58:15 PM 36.1336 -78.1200 63° Northeast 469 540 33,000  Level Washington Center
Sun 06:59:13 PM 36.1950 -77.9728 63° Northeast 469 540 33,000  Level Washington Center
Sun 07:00:14 PM 36.2542 -77.8253 64° Northeast 469 540 33,000  Level Washington Center
Sun 07:01:14 PM 36.3111 -77.6772 64° Northeast 469 540 33,000  Level Washington Center
Sun 07:02:15 PM 36.3719 -77.5319 62° Northeast 464 534 33,000  Level Washington Center
Sun 07:03:15 PM 36.4264 -77.3861 65° Northeast 464 534 33,000  Level Washington Center
Sun 07:04:15 PM 36.4869 -77.2428 62° Northeast 459 528 33,000  Level Washington Center
Sun 07:05:13 PM 36.5386 -77.1094 64° Northeast 470 541 33,000  Level Washington Center
Sun 07:06:13 PM 36.5989 -76.9606 63° Northeast 470 541 33,000  Level Washington Center
Sun 07:07:14 PM 36.6569 -76.8139 64° Northeast 470 541 33,000  Level Washington Center
Sun 07:08:14 PM 36.7125 -76.6644 65° Northeast 470 541 33,000  Level Washington Center
Sun 07:09:15 PM 36.7783 -76.5203 60° Northeast 470 541 33,000  Level Washington Center
Sun 07:10:13 PM 36.8814 -76.4281 36° Northeast 457 526 33,000  Level Washington Center
Sun 07:11:15 PM 36.9925 -76.3381 33° Northeast 455 524 33,000  Level Washington Center
Sun 07:12:15 PM 37.1033 -76.2508 32° Northeast 461 531 33,000  Level Washington Center
Sun 07:13:13 PM 37.2103 -76.1603 34° Northeast 466 536 33,000 -51 Level Washington Center
Sun 07:14:13 PM 37.3339 -76.0672 31° Northeast 466 536 32,900  Descending Washington Center
Sun 07:15:14 PM 37.4406 -75.9817 32° Northeast 461 531 33,000 50 Climbing Washington Center
Sun 07:16:14 PM 37.5514 -75.8906 33° Northeast 461 531 33,000  Level Washington Center
Sun 07:17:15 PM 37.6578 -75.7992 34° Northeast 461 531 33,000  Level Washington Center
Sun 07:18:16 PM 37.7686 -75.7075 33° Northeast 461 531 33,000  Level Washington Center
Sun 07:19:13 PM 37.8792 -75.6181 33° Northeast 461 531 33,000  Level Washington Center
Sun 07:20:14 PM 37.9856 -75.5286 34° Northeast 461 531 33,000  Level Washington Center
Sun 07:21:14 PM 38.0958 -75.4467 30° Northeast 461 531 33,000  Level Washington Center
Sun 07:22:14 PM 38.2106 -75.3750 26° Northeast 456 525 33,000  Level Washington Center
Sun 07:23:15 PM 38.2978 -75.3192 27° Northeast 451 519 33,000  Level Washington Center
Sun 07:24:13 PM 38.4208 -75.2339 28° Northeast 446 513 33,000  Level Washington Center
Sun 07:25:16 PM 38.5331 -75.1669 25° Northeast 446 513 33,000  Level Washington Center
Sun 07:26:13 PM 38.6453 -75.0947 27° Northeast 446 513 33,000  Level Washington Center
Sun 07:27:14 PM 38.7575 -75.0247 26° Northeast 446 513 33,000  Level Washington Center
Sun 07:28:15 PM 38.8678 -74.9517 27° Northeast 446 513 33,000 -151 Level Washington Center
Sun 07:29:13 PM 38.9800 -74.8786 27° Northeast 446 513 32,700 -1,008 Descending Washington Center
Sun 07:30:14 PM 39.0878 -74.8108 26° Northeast 446 513 31,000 -1,623 Descending Washington Center
Sun 07:31:15 PM 39.1872 -74.7106 38° Northeast 446 513 29,400 -2,496 Descending Washington Center
Sun 07:32:19 PM 39.2928 -74.5936 41° Northeast 441 507 25,800 -3,290 Descending New York Center
Sun 07:33:19 PM 39.3858 -74.4911 40° Northeast 426 490 22,600 -3,203 Descending New York Center
Sun 07:34:17 PM 39.4742 -74.3936 40° Northeast 421 484 19,500 -2,319 Descending New York Center
Sun 07:35:18 PM 39.5561 -74.3036 40° Northeast 421 484 18,000 -726 Descending New York Center
Sun 07:36:21 PM 39.6425 -74.2108 40° Northeast 416 479 18,000 -1,200 Level New York Center
Sun 07:37:18 PM 39.7350 -74.1072 41° Northeast 404 465 15,600 -2,542 Descending New York Center
Sun 07:38:19 PM 39.8167 -74.0167 40° Northeast 391 450 13,000 -2,319 Descending New York Center
Sun 07:39:17 PM 39.9042 -73.9422 33° Northeast 381 438 11,000 -1,000 Descending New York Center
Sun 07:40:19 PM 39.9783 -73.8969 25° Northeast 347 399 11,000  Level New York Center
Sun 07:41:19 PM 40.0592 -73.8408 28° Northeast 298 343 11,000 -605 Level New York Center
Sun 07:42:18 PM 40.1364 -73.8336 North 287 330 9,800 -1,500 Descending New York Center
Sun 07:43:19 PM 40.2150 -73.8561 348° North 281 323 8,000 -1,636 Descending New York Center
Sun 07:44:19 PM 40.2833 -73.8728 349° North 281 323 6,500 -1,563 Descending New York Center
Sun 07:45:18 PM 40.3569 -73.9250 332° Northwest 270 311 4,900 -1,550 Descending New York Center
Sun 07:46:19 PM 40.4142 -73.9711 328° Northwest 270 311 3,400 -942 Descending New York Center
Sun 07:47:19 PM 40.4847 -73.9828 353° North 238 274 3,000 -200 Descending New York Center
Sun 07:48:19 PM 40.5333 -73.9667 14° North 186 214 3,000 -700 Level New York TRACON
Sun 07:49:19 PM 40.5667 -73.9333 37° Northeast 170 196 1,600 -750 Descending New York TRACON
Sun 07:50:19 PM 40.6167 -73.9000 27° Northeast 147 169 1,500 -400 Descending New York TRACON
Sun 07:51:19 PM 40.6500 -73.8667 37° Northeast 148 170 800 -400 Descending New York TRACON
Sun 07:52:19 PM 40.6667 -73.8333 57° Northeast 144 166 700 -100 Descending New York TRACON

Login

Don't have an account? Register now (free) for customized features, flight alerts, and more!